Terminal Aerodrome Forecast
Issued by NWS

Home | Current Version | Previous Version | Text Only | Print | Product List | Glossary On
Versions: 1 2 3 4 5 6 7 8 9 10 11 12 13 14 15
000
FTUS41 KLWX 022300 AAA
TAFMTN
TAF AMD
KMTN 022343Z 0300/0324 23007KT P6SM VCTS BKN050CB BKN200
      TEMPO 0300/0301 VRB45KT 1SM +TSRA OVC015CB
     FM030200 VRB04KT P6SM SCT050 BKN200
     FM031200 32005KT P6SM FEW050 SCT200
     FM031800 13005KT P6SM FEW050
     FM032300 VRB03KT P6SM FEW050
      AMD NOT SKED 0302/0312=

USA.gov is the U.S. government's official web portal to all federal, state and local government web resources and services.